sensor_id;sensor_type;location;lat;lon;timestamp;temperature;humidity
5246;DHT22;54412;51.206;6.888;2022-10-16T00:01:19;14.50;99.90
5246;DHT22;54412;51.206;6.888;2022-10-16T00:03:47;14.50;99.90
5246;DHT22;54412;51.206;6.888;2022-10-16T00:06:16;14.50;99.90
5246;DHT22;54412;51.206;6.888;2022-10-16T00:08:43;14.50;99.90
5246;DHT22;54412;51.206;6.888;2022-10-16T00:11:13;14.40;99.90
5246;DHT22;54412;51.206;6.888;2022-10-16T00:13:44;14.40;99.90
5246;DHT22;54412;51.206;6.888;2022-10-16T00:16:11;14.40;99.90
5246;DHT22;54412;51.206;6.888;2022-10-16T00:18:39;14.40;99.90
5246;DHT22;54412;51.206;6.888;2022-10-16T00:21:18;14.40;99.90
5246;DHT22;54412;51.206;6.888;2022-10-16T00:23:45;14.40;99.90
5246;DHT22;54412;51.206;6.888;2022-10-16T00:26:13;14.40;99.90
5246;DHT22;54412;51.206;6.888;2022-10-16T00:28:41;14.40;99.90
5246;DHT22;54412;51.206;6.888;2022-10-16T00:31:09;14.40;99.90
5246;DHT22;54412;51.206;6.888;2022-10-16T00:33:37;14.40;99.90
5246;DHT22;54412;51.206;6.888;2022-10-16T00:36:05;14.40;99.90
5246;DHT22;54412;51.206;6.888;2022-10-16T00:38:31;14.40;99.90
5246;DHT22;54412;51.206;6.888;2022-10-16T00:40:58;14.40;99.90
5246;DHT22;54412;51.206;6.888;2022-10-16T00:43:45;14.40;99.90
5246;DHT22;54412;51.206;6.888;2022-10-16T00:49:08;14.40;99.90
5246;DHT22;54412;51.206;6.888;2022-10-16T00:51:42;14.40;99.90
5246;DHT22;54412;51.206;6.888;2022-10-16T00:54:14;14.40;99.90
5246;DHT22;54412;51.206;6.888;2022-10-16T00:56:53;14.30;99.90
5246;DHT22;54412;51.206;6.888;2022-10-16T00:59:27;14.30;99.90
5246;DHT22;54412;51.206;6.888;2022-10-16T01:01:56;14.30;99.90
5246;DHT22;54412;51.206;6.888;2022-10-16T01:04:24;14.30;99.90
5246;DHT22;54412;51.206;6.888;2022-10-16T01:09:36;14.20;99.90
5246;DHT22;54412;51.206;6.888;2022-10-16T01:12:14;14.10;99.90
5246;DHT22;54412;51.206;6.888;2022-10-16T01:14:58;14.20;99.90
5246;DHT22;54412;51.206;6.888;2022-10-16T01:20:32;14.00;99.90
5246;DHT22;54412;51.206;6.888;2022-10-16T01:29:53;14.00;99.90
5246;DHT22;54412;51.206;6.888;2022-10-16T01:32:08;14.00;99.90
5246;DHT22;54412;51.206;6.888;2022-10-16T01:34:54;14.00;99.90
5246;DHT22;54412;51.206;6.888;2022-10-16T01:37:53;13.90;99.90
5246;DHT22;54412;51.206;6.888;2022-10-16T01:40:28;13.90;99.90
5246;DHT22;54412;51.206;6.888;2022-10-16T01:43:20;13.90;99.90
5246;DHT22;54412;51.206;6.888;2022-10-16T01:45:51;14.00;99.90
5246;DHT22;54412;51.206;6.888;2022-10-16T01:48:19;14.00;99.90
5246;DHT22;54412;51.206;6.888;2022-10-16T01:50:57;14.00;99.90
5246;DHT22;54412;51.206;6.888;2022-10-16T01:53:49;14.00;99.90
5246;DHT22;54412;51.206;6.888;2022-10-16T01:56:18;14.10;99.90
5246;DHT22;54412;51.206;6.888;2022-10-16T01:58:52;14.10;99.90
5246;DHT22;54412;51.206;6.888;2022-10-16T02:01:25;14.10;99.90
5246;DHT22;54412;51.206;6.888;2022-10-16T02:03:56;14.20;99.90
5246;DHT22;54412;51.206;6.888;2022-10-16T02:06:26;14.10;99.90
5246;DHT22;54412;51.206;6.888;2022-10-16T02:08:53;14.10;99.90
5246;DHT22;54412;51.206;6.888;2022-10-16T02:11:19;14.10;99.90
5246;DHT22;54412;51.206;6.888;2022-10-16T02:13:53;14.20;99.90
5246;DHT22;54412;51.206;6.888;2022-10-16T02:16:43;14.20;99.90
5246;DHT22;54412;51.206;6.888;2022-10-16T02:19:12;14.20;99.90
5246;DHT22;54412;51.206;6.888;2022-10-16T02:21:48;14.20;99.90
5246;DHT22;54412;51.206;6.888;2022-10-16T02:24:41;14.30;99.90
5246;DHT22;54412;51.206;6.888;2022-10-16T02:30:20;14.40;99.90
5246;DHT22;54412;51.206;6.888;2022-10-16T02:33:03;14.40;99.90
5246;DHT22;54412;51.206;6.888;2022-10-16T02:35:31;14.40;99.90
5246;DHT22;54412;51.206;6.888;2022-10-16T02:37:58;14.40;99.90
5246;DHT22;54412;51.206;6.888;2022-10-16T02:40:25;14.40;99.90
5246;DHT22;54412;51.206;6.888;2022-10-16T02:42:53;14.40;99.90
5246;DHT22;54412;51.206;6.888;2022-10-16T02:45:20;14.40;99.90
5246;DHT22;54412;51.206;6.888;2022-10-16T02:47:46;14.40;99.90
5246;DHT22;54412;51.206;6.888;2022-10-16T02:50:12;14.30;99.90
5246;DHT22;54412;51.206;6.888;2022-10-16T02:52:38;14.30;99.90
5246;DHT22;54412;51.206;6.888;2022-10-16T02:55:04;14.30;99.90
5246;DHT22;54412;51.206;6.888;2022-10-16T02:57:30;14.30;99.90
5246;DHT22;54412;51.206;6.888;2022-10-16T02:59:57;14.30;99.90
5246;DHT22;54412;51.206;6.888;2022-10-16T03:02:23;14.30;99.90
5246;DHT22;54412;51.206;6.888;2022-10-16T03:04:49;14.40;99.90
5246;DHT22;54412;51.206;6.888;2022-10-16T03:07:15;14.40;99.90
5246;DHT22;54412;51.206;6.888;2022-10-16T03:09:41;14.40;99.90
5246;DHT22;54412;51.206;6.888;2022-10-16T03:12:06;14.40;99.90
5246;DHT22;54412;51.206;6.888;2022-10-16T03:14:32;14.50;99.90
5246;DHT22;54412;51.206;6.888;2022-10-16T03:16:58;14.40;99.90
5246;DHT22;54412;51.206;6.888;2022-10-16T03:19:24;14.40;99.90
5246;DHT22;54412;51.206;6.888;2022-10-16T03:21:50;14.40;99.90
5246;DHT22;54412;51.206;6.888;2022-10-16T03:24:15;14.30;99.90
5246;DHT22;54412;51.206;6.888;2022-10-16T03:26:41;14.30;99.90
5246;DHT22;54412;51.206;6.888;2022-10-16T03:29:07;14.30;99.90
5246;DHT22;54412;51.206;6.888;2022-10-16T03:31:33;14.30;99.90
5246;DHT22;54412;51.206;6.888;2022-10-16T03:33:59;14.30;99.90
5246;DHT22;54412;51.206;6.888;2022-10-16T03:36:24;14.30;99.90
5246;DHT22;54412;51.206;6.888;2022-10-16T03:38:50;14.30;99.90
5246;DHT22;54412;51.206;6.888;2022-10-16T03:41:16;14.30;99.90
5246;DHT22;54412;51.206;6.888;2022-10-16T03:43:42;14.30;99.90
5246;DHT22;54412;51.206;6.888;2022-10-16T03:46:07;14.30;99.90
5246;DHT22;54412;51.206;6.888;2022-10-16T03:48:33;14.30;99.90
5246;DHT22;54412;51.206;6.888;2022-10-16T03:50:59;14.30;99.90
5246;DHT22;54412;51.206;6.888;2022-10-16T03:53:25;14.20;99.90
5246;DHT22;54412;51.206;6.888;2022-10-16T03:55:50;14.30;99.90
5246;DHT22;54412;51.206;6.888;2022-10-16T03:58:16;14.20;99.90
5246;DHT22;54412;51.206;6.888;2022-10-16T04:00:43;14.30;99.90
5246;DHT22;54412;51.206;6.888;2022-10-16T04:03:10;14.30;99.90
5246;DHT22;54412;51.206;6.888;2022-10-16T04:05:37;14.30;99.90
5246;DHT22;54412;51.206;6.888;2022-10-16T04:08:03;14.30;99.90
5246;DHT22;54412;51.206;6.888;2022-10-16T04:10:29;14.20;99.90
5246;DHT22;54412;51.206;6.888;2022-10-16T04:12:55;14.30;99.90
5246;DHT22;54412;51.206;6.888;2022-10-16T04:15:22;14.20;99.90
5246;DHT22;54412;51.206;6.888;2022-10-16T04:17:48;14.10;99.90
5246;DHT22;54412;51.206;6.888;2022-10-16T04:20:14;14.10;99.90
5246;DHT22;54412;51.206;6.888;2022-10-16T04:22:40;14.20;99.90
5246;DHT22;54412;51.206;6.888;2022-10-16T04:25:06;14.20;99.90
5246;DHT22;54412;51.206;6.888;2022-10-16T04:27:32;14.20;99.90
5246;DHT22;54412;51.206;6.888;2022-10-16T04:29:59;14.10;99.90
5246;DHT22;54412;51.206;6.888;2022-10-16T04:32:26;14.10;99.90
5246;DHT22;54412;51.206;6.888;2022-10-16T04:34:52;14.10;99.90
5246;DHT22;54412;51.206;6.888;2022-10-16T04:37:18;14.10;99.90
5246;DHT22;54412;51.206;6.888;2022-10-16T04:39:44;14.10;99.90
5246;DHT22;54412;51.206;6.888;2022-10-16T04:42:10;14.20;99.90
5246;DHT22;54412;51.206;6.888;2022-10-16T04:44:36;14.20;99.90
5246;DHT22;54412;51.206;6.888;2022-10-16T04:47:02;14.10;99.90
5246;DHT22;54412;51.206;6.888;2022-10-16T04:49:28;14.10;99.90
5246;DHT22;54412;51.206;6.888;2022-10-16T04:51:53;14.10;99.90
5246;DHT22;54412;51.206;6.888;2022-10-16T04:54:19;14.10;99.90
5246;DHT22;54412;51.206;6.888;2022-10-16T04:56:45;14.00;99.90
5246;DHT22;54412;51.206;6.888;2022-10-16T04:59:16;14.00;99.90
5246;DHT22;54412;51.206;6.888;2022-10-16T05:01:43;14.00;99.90
5246;DHT22;54412;51.206;6.888;2022-10-16T05:04:09;14.10;99.90
5246;DHT22;54412;51.206;6.888;2022-10-16T05:06:35;14.10;99.90
5246;DHT22;54412;51.206;6.888;2022-10-16T05:09:04;14.00;99.90
5246;DHT22;54412;51.206;6.888;2022-10-16T05:11:30;14.10;99.90
5246;DHT22;54412;51.206;6.888;2022-10-16T05:13:56;14.00;99.90
5246;DHT22;54412;51.206;6.888;2022-10-16T05:16:22;14.00;99.90
5246;DHT22;54412;51.206;6.888;2022-10-16T05:18:48;14.00;99.90
5246;DHT22;54412;51.206;6.888;2022-10-16T05:21:14;14.00;99.90
5246;DHT22;54412;51.206;6.888;2022-10-16T05:23:39;13.90;99.90
5246;DHT22;54412;51.206;6.888;2022-10-16T05:26:05;14.00;99.90
5246;DHT22;54412;51.206;6.888;2022-10-16T05:28:31;14.00;99.90
5246;DHT22;54412;51.206;6.888;2022-10-16T05:30:57;14.00;99.90
5246;DHT22;54412;51.206;6.888;2022-10-16T05:33:24;14.00;99.90
5246;DHT22;54412;51.206;6.888;2022-10-16T05:35:51;13.90;99.90
5246;DHT22;54412;51.206;6.888;2022-10-16T05:38:17;13.90;99.90
5246;DHT22;54412;51.206;6.888;2022-10-16T05:40:49;14.00;99.90
5246;DHT22;54412;51.206;6.888;2022-10-16T05:43:16;14.00;99.90
5246;DHT22;54412;51.206;6.888;2022-10-16T05:45:41;14.00;99.90
5246;DHT22;54412;51.206;6.888;2022-10-16T05:48:07;14.00;99.90
5246;DHT22;54412;51.206;6.888;2022-10-16T05:50:33;13.90;99.90
5246;DHT22;54412;51.206;6.888;2022-10-16T05:52:58;13.90;99.90
5246;DHT22;54412;51.206;6.888;2022-10-16T05:55:24;13.90;99.90
5246;DHT22;54412;51.206;6.888;2022-10-16T05:57:49;13.90;99.90
5246;DHT22;54412;51.206;6.888;2022-10-16T06:00:15;14.00;99.90
5246;DHT22;54412;51.206;6.888;2022-10-16T06:02:41;14.00;99.90
5246;DHT22;54412;51.206;6.888;2022-10-16T06:05:06;14.10;99.90
5246;DHT22;54412;51.206;6.888;2022-10-16T06:07:35;14.20;99.90
5246;DHT22;54412;51.206;6.888;2022-10-16T06:10:02;14.20;99.90
5246;DHT22;54412;51.206;6.888;2022-10-16T06:12:29;14.20;99.90
5246;DHT22;54412;51.206;6.888;2022-10-16T06:14:55;14.20;99.90
5246;DHT22;54412;51.206;6.888;2022-10-16T06:17:20;14.30;99.90
5246;DHT22;54412;51.206;6.888;2022-10-16T06:19:46;14.40;99.90
5246;DHT22;54412;51.206;6.888;2022-10-16T06:22:11;14.30;99.90
5246;DHT22;54412;51.206;6.888;2022-10-16T06:24:37;14.30;99.90
5246;DHT22;54412;51.206;6.888;2022-10-16T06:27:04;14.30;99.90
5246;DHT22;54412;51.206;6.888;2022-10-16T06:29:30;14.40;99.90
5246;DHT22;54412;51.206;6.888;2022-10-16T06:31:55;14.40;99.90
5246;DHT22;54412;51.206;6.888;2022-10-16T06:34:21;14.40;99.90
5246;DHT22;54412;51.206;6.888;2022-10-16T06:36:47;14.30;99.90
5246;DHT22;54412;51.206;6.888;2022-10-16T06:39:12;14.40;99.90
5246;DHT22;54412;51.206;6.888;2022-10-16T06:41:38;14.40;99.90
5246;DHT22;54412;51.206;6.888;2022-10-16T06:44:07;14.40;99.90
5246;DHT22;54412;51.206;6.888;2022-10-16T06:46:33;14.50;99.90
5246;DHT22;54412;51.206;6.888;2022-10-16T06:48:59;14.50;99.90
5246;DHT22;54412;51.206;6.888;2022-10-16T06:51:25;14.50;99.90
5246;DHT22;54412;51.206;6.888;2022-10-16T06:53:53;14.50;99.90
5246;DHT22;54412;51.206;6.888;2022-10-16T06:56:26;14.50;99.90
5246;DHT22;54412;51.206;6.888;2022-10-16T06:58:53;14.50;99.90
5246;DHT22;54412;51.206;6.888;2022-10-16T07:01:21;14.50;99.90
5246;DHT22;54412;51.206;6.888;2022-10-16T07:03:48;14.60;99.90
5246;DHT22;54412;51.206;6.888;2022-10-16T07:06:16;14.60;99.90
5246;DHT22;54412;51.206;6.888;2022-10-16T07:08:45;14.70;99.90
5246;DHT22;54412;51.206;6.888;2022-10-16T07:11:14;14.70;99.90
5246;DHT22;54412;51.206;6.888;2022-10-16T07:13:43;14.60;99.90
5246;DHT22;54412;51.206;6.888;2022-10-16T07:16:21;14.60;99.90
5246;DHT22;54412;51.206;6.888;2022-10-16T07:18:49;14.60;99.90
5246;DHT22;54412;51.206;6.888;2022-10-16T07:21:19;14.70;99.90
5246;DHT22;54412;51.206;6.888;2022-10-16T07:23:52;14.70;99.90
5246;DHT22;54412;51.206;6.888;2022-10-16T07:26:19;14.60;99.90
5246;DHT22;54412;51.206;6.888;2022-10-16T07:28:44;14.60;99.90
5246;DHT22;54412;51.206;6.888;2022-10-16T07:31:12;14.60;99.90
5246;DHT22;54412;51.206;6.888;2022-10-16T07:33:41;14.70;99.90
5246;DHT22;54412;51.206;6.888;2022-10-16T07:36:10;14.70;99.90
5246;DHT22;54412;51.206;6.888;2022-10-16T07:38:37;14.70;99.90
5246;DHT22;54412;51.206;6.888;2022-10-16T07:41:05;14.80;99.90
5246;DHT22;54412;51.206;6.888;2022-10-16T07:43:33;14.70;99.90
5246;DHT22;54412;51.206;6.888;2022-10-16T07:45:59;14.70;99.90
5246;DHT22;54412;51.206;6.888;2022-10-16T07:48:28;14.80;99.90
5246;DHT22;54412;51.206;6.888;2022-10-16T07:51:03;14.90;99.90
5246;DHT22;54412;51.206;6.888;2022-10-16T07:53:31;15.10;99.90
5246;DHT22;54412;51.206;6.888;2022-10-16T07:56:01;15.50;99.90
5246;DHT22;54412;51.206;6.888;2022-10-16T07:58:28;15.90;99.90
5246;DHT22;54412;51.206;6.888;2022-10-16T08:00:55;16.10;99.90
5246;DHT22;54412;51.206;6.888;2022-10-16T08:03:22;16.40;99.90
5246;DHT22;54412;51.206;6.888;2022-10-16T08:05:48;16.50;99.90
5246;DHT22;54412;51.206;6.888;2022-10-16T08:08:15;16.70;99.90
5246;DHT22;54412;51.206;6.888;2022-10-16T08:10:41;16.80;99.90
5246;DHT22;54412;51.206;6.888;2022-10-16T08:13:07;17.00;99.90
5246;DHT22;54412;51.206;6.888;2022-10-16T08:15:33;17.20;99.90
5246;DHT22;54412;51.206;6.888;2022-10-16T08:18:01;17.30;99.90
5246;DHT22;54412;51.206;6.888;2022-10-16T08:20:30;17.40;99.90
5246;DHT22;54412;51.206;6.888;2022-10-16T08:22:57;17.40;99.90
5246;DHT22;54412;51.206;6.888;2022-10-16T08:25:24;17.30;99.90
5246;DHT22;54412;51.206;6.888;2022-10-16T08:27:50;17.60;99.90
5246;DHT22;54412;51.206;6.888;2022-10-16T08:30:18;17.70;99.90
5246;DHT22;54412;51.206;6.888;2022-10-16T08:32:45;17.80;99.90
5246;DHT22;54412;51.206;6.888;2022-10-16T08:35:12;17.50;99.90
5246;DHT22;54412;51.206;6.888;2022-10-16T08:37:40;17.90;99.90
5246;DHT22;54412;51.206;6.888;2022-10-16T08:40:24;18.00;99.90
5246;DHT22;54412;51.206;6.888;2022-10-16T08:49:08;18.40;99.90
5246;DHT22;54412;51.206;6.888;2022-10-16T08:51:38;18.60;99.90
5246;DHT22;54412;51.206;6.888;2022-10-16T08:54:29;18.70;99.90
5246;DHT22;54412;51.206;6.888;2022-10-16T08:57:16;18.40;99.90
5246;DHT22;54412;51.206;6.888;2022-10-16T08:59:45;18.50;99.90
5246;DHT22;54412;51.206;6.888;2022-10-16T09:02:35;18.50;99.90
5246;DHT22;54412;51.206;6.888;2022-10-16T09:14:19;18.90;99.90
5246;DHT22;54412;51.206;6.888;2022-10-16T09:16:57;19.30;99.90
5246;DHT22;54412;51.206;6.888;2022-10-16T09:19:41;19.40;99.90
5246;DHT22;54412;51.206;6.888;2022-10-16T09:22:16;19.30;99.90
5246;DHT22;54412;51.206;6.888;2022-10-16T09:24:43;19.40;99.90
5246;DHT22;54412;51.206;6.888;2022-10-16T09:27:14;19.60;99.90
5246;DHT22;54412;51.206;6.888;2022-10-16T09:29:40;19.30;99.90
5246;DHT22;54412;51.206;6.888;2022-10-16T09:32:12;19.70;99.90
5246;DHT22;54412;51.206;6.888;2022-10-16T09:34:48;20.00;99.90
5246;DHT22;54412;51.206;6.888;2022-10-16T09:37:19;20.20;99.90
5246;DHT22;54412;51.206;6.888;2022-10-16T09:39:49;20.60;99.90
5246;DHT22;54412;51.206;6.888;2022-10-16T09:42:18;20.40;99.90
5246;DHT22;54412;51.206;6.888;2022-10-16T09:44:48;20.40;99.90
5246;DHT22;54412;51.206;6.888;2022-10-16T09:47:26;20.70;99.90
5246;DHT22;54412;51.206;6.888;2022-10-16T09:49:59;21.00;99.90
5246;DHT22;54412;51.206;6.888;2022-10-16T09:52:28;20.80;99.90
5246;DHT22;54412;51.206;6.888;2022-10-16T09:55:00;20.60;99.90
5246;DHT22;54412;51.206;6.888;2022-10-16T09:57:28;20.70;99.90
5246;DHT22;54412;51.206;6.888;2022-10-16T09:59:57;20.40;99.90
5246;DHT22;54412;51.206;6.888;2022-10-16T10:02:30;20.50;99.90
5246;DHT22;54412;51.206;6.888;2022-10-16T10:05:02;20.40;99.90
5246;DHT22;54412;51.206;6.888;2022-10-16T10:07:32;20.10;99.90
5246;DHT22;54412;51.206;6.888;2022-10-16T10:10:05;20.10;99.90
5246;DHT22;54412;51.206;6.888;2022-10-16T10:12:42;20.10;99.90
5246;DHT22;54412;51.206;6.888;2022-10-16T10:15:11;20.60;99.90
5246;DHT22;54412;51.206;6.888;2022-10-16T10:17:47;20.80;99.90
5246;DHT22;54412;51.206;6.888;2022-10-16T10:20:25;20.90;99.90
5246;DHT22;54412;51.206;6.888;2022-10-16T10:22:53;20.70;99.90
5246;DHT22;54412;51.206;6.888;2022-10-16T10:25:37;20.60;99.90
5246;DHT22;54412;51.206;6.888;2022-10-16T10:28:29;20.30;99.90
5246;DHT22;54412;51.206;6.888;2022-10-16T10:31:20;20.30;99.90
5246;DHT22;54412;51.206;6.888;2022-10-16T10:45:54;20.20;99.90
5246;DHT22;54412;51.206;6.888;2022-10-16T10:48:52;20.20;99.90
5246;DHT22;54412;51.206;6.888;2022-10-16T10:57:07;20.90;99.90
5246;DHT22;54412;51.206;6.888;2022-10-16T10:59:47;21.20;99.90
5246;DHT22;54412;51.206;6.888;2022-10-16T11:02:28;21.30;99.90
5246;DHT22;54412;51.206;6.888;2022-10-16T11:08:20;21.10;99.90
5246;DHT22;54412;51.206;6.888;2022-10-16T11:11:02;20.60;99.90
5246;DHT22;54412;51.206;6.888;2022-10-16T11:13:54;20.60;99.90
5246;DHT22;54412;51.206;6.888;2022-10-16T11:16:34;21.00;99.90
5246;DHT22;54412;51.206;6.888;2022-10-16T11:22:03;21.50;99.90
5246;DHT22;54412;51.206;6.888;2022-10-16T11:24:51;21.70;99.90
5246;DHT22;54412;51.206;6.888;2022-10-16T11:27:34;22.40;99.90
5246;DHT22;54412;51.206;6.888;2022-10-16T11:30:14;22.40;99.90
5246;DHT22;54412;51.206;6.888;2022-10-16T11:33:04;22.10;99.90
5246;DHT22;54412;51.206;6.888;2022-10-16T11:38:57;21.80;99.90
5246;DHT22;54412;51.206;6.888;2022-10-16T11:44:53;20.80;99.90
5246;DHT22;54412;51.206;6.888;2022-10-16T11:47:45;20.50;99.90
5246;DHT22;54412;51.206;6.888;2022-10-16T11:50:38;21.10;99.90
5246;DHT22;54412;51.206;6.888;2022-10-16T11:55:48;21.80;99.90
5246;DHT22;54412;51.206;6.888;2022-10-16T11:58:28;21.90;99.90
5246;DHT22;54412;51.206;6.888;2022-10-16T12:01:42;21.80;99.90
5246;DHT22;54412;51.206;6.888;2022-10-16T12:04:34;22.00;99.90
5246;DHT22;54412;51.206;6.888;2022-10-16T12:07:16;22.30;99.90
5246;DHT22;54412;51.206;6.888;2022-10-16T12:09:47;22.90;99.90
5246;DHT22;54412;51.206;6.888;2022-10-16T12:17:48;23.50;99.90
5246;DHT22;54412;51.206;6.888;2022-10-16T12:22:52;23.50;99.90
5246;DHT22;54412;51.206;6.888;2022-10-16T12:25:32;23.20;99.90
5246;DHT22;54412;51.206;6.888;2022-10-16T12:28:00;23.20;99.90
5246;DHT22;54412;51.206;6.888;2022-10-16T12:30:32;23.30;99.90
5246;DHT22;54412;51.206;6.888;2022-10-16T12:33:03;23.50;99.90
5246;DHT22;54412;51.206;6.888;2022-10-16T12:35:44;23.00;99.90
5246;DHT22;54412;51.206;6.888;2022-10-16T12:38:26;23.40;99.90
5246;DHT22;54412;51.206;6.888;2022-10-16T12:43:27;22.60;99.90
5246;DHT22;54412;51.206;6.888;2022-10-16T12:46:20;23.00;99.90
5246;DHT22;54412;51.206;6.888;2022-10-16T12:48:47;22.30;99.90
5246;DHT22;54412;51.206;6.888;2022-10-16T12:51:36;22.30;99.90
5246;DHT22;54412;51.206;6.888;2022-10-16T12:54:03;22.60;99.90
5246;DHT22;54412;51.206;6.888;2022-10-16T12:56:40;22.40;99.90
5246;DHT22;54412;51.206;6.888;2022-10-16T13:05:24;21.40;99.90
5246;DHT22;54412;51.206;6.888;2022-10-16T13:11:20;21.00;99.90
5246;DHT22;54412;51.206;6.888;2022-10-16T13:17:22;21.20;99.90
5246;DHT22;54412;51.206;6.888;2022-10-16T13:20:14;21.80;99.90
5246;DHT22;54412;51.206;6.888;2022-10-16T13:23:22;22.60;99.90
5246;DHT22;54412;51.206;6.888;2022-10-16T13:26:00;23.00;99.90
5246;DHT22;54412;51.206;6.888;2022-10-16T13:28:35;23.10;99.90
5246;DHT22;54412;51.206;6.888;2022-10-16T13:31:03;23.10;99.90
5246;DHT22;54412;51.206;6.888;2022-10-16T13:33:33;23.20;99.90
5246;DHT22;54412;51.206;6.888;2022-10-16T13:36:02;23.30;99.90
5246;DHT22;54412;51.206;6.888;2022-10-16T13:38:34;23.60;99.90
5246;DHT22;54412;51.206;6.888;2022-10-16T13:41:02;23.30;99.90
5246;DHT22;54412;51.206;6.888;2022-10-16T13:43:35;23.20;99.90
5246;DHT22;54412;51.206;6.888;2022-10-16T13:46:05;23.10;99.90
5246;DHT22;54412;51.206;6.888;2022-10-16T13:48:37;23.40;99.90
5246;DHT22;54412;51.206;6.888;2022-10-16T13:51:05;24.00;99.90
5246;DHT22;54412;51.206;6.888;2022-10-16T13:53:37;23.70;99.90
5246;DHT22;54412;51.206;6.888;2022-10-16T13:56:05;23.30;99.90
5246;DHT22;54412;51.206;6.888;2022-10-16T13:58:35;23.20;99.90
5246;DHT22;54412;51.206;6.888;2022-10-16T14:01:06;23.40;99.90
5246;DHT22;54412;51.206;6.888;2022-10-16T14:03:42;23.60;99.90
5246;DHT22;54412;51.206;6.888;2022-10-16T14:06:21;23.20;99.90
5246;DHT22;54412;51.206;6.888;2022-10-16T14:09:40;22.40;99.90
5246;DHT22;54412;51.206;6.888;2022-10-16T14:11:53;22.00;99.90
5246;DHT22;54412;51.206;6.888;2022-10-16T14:14:22;21.70;99.90
5246;DHT22;54412;51.206;6.888;2022-10-16T14:16:49;21.40;99.90
5246;DHT22;54412;51.206;6.888;2022-10-16T14:19:20;21.10;99.90
5246;DHT22;54412;51.206;6.888;2022-10-16T14:21:50;21.00;99.90
5246;DHT22;54412;51.206;6.888;2022-10-16T14:24:26;20.90;99.90
5246;DHT22;54412;51.206;6.888;2022-10-16T14:26:57;21.00;99.90
5246;DHT22;54412;51.206;6.888;2022-10-16T14:29:25;20.90;99.90
5246;DHT22;54412;51.206;6.888;2022-10-16T14:32:06;20.80;99.90
5246;DHT22;54412;51.206;6.888;2022-10-16T14:34:53;20.70;99.90
5246;DHT22;54412;51.206;6.888;2022-10-16T14:37:27;20.50;99.90
5246;DHT22;54412;51.206;6.888;2022-10-16T14:39:55;20.50;99.90
5246;DHT22;54412;51.206;6.888;2022-10-16T14:42:23;20.40;99.90
5246;DHT22;54412;51.206;6.888;2022-10-16T14:44:51;20.40;99.90
5246;DHT22;54412;51.206;6.888;2022-10-16T14:47:22;20.30;99.90
5246;DHT22;54412;51.206;6.888;2022-10-16T14:49:52;20.20;99.90
5246;DHT22;54412;51.206;6.888;2022-10-16T14:52:21;20.10;99.90
5246;DHT22;54412;51.206;6.888;2022-10-16T14:54:50;20.10;99.90
5246;DHT22;54412;51.206;6.888;2022-10-16T14:57:23;20.10;99.90
5246;DHT22;54412;51.206;6.888;2022-10-16T14:59:52;20.10;99.90
5246;DHT22;54412;51.206;6.888;2022-10-16T15:02:27;20.20;99.90
5246;DHT22;54412;51.206;6.888;2022-10-16T15:04:54;20.10;99.90
5246;DHT22;54412;51.206;6.888;2022-10-16T15:07:20;20.00;99.90
5246;DHT22;54412;51.206;6.888;2022-10-16T15:09:46;20.10;99.90
5246;DHT22;54412;51.206;6.888;2022-10-16T15:12:12;20.00;99.90
5246;DHT22;54412;51.206;6.888;2022-10-16T15:14:37;19.90;99.90
5246;DHT22;54412;51.206;6.888;2022-10-16T15:17:03;19.90;99.90
5246;DHT22;54412;51.206;6.888;2022-10-16T15:19:29;19.80;99.90
5246;DHT22;54412;51.206;6.888;2022-10-16T15:21:55;19.80;99.90
5246;DHT22;54412;51.206;6.888;2022-10-16T15:24:21;19.70;99.90
5246;DHT22;54412;51.206;6.888;2022-10-16T15:26:47;19.70;99.90
5246;DHT22;54412;51.206;6.888;2022-10-16T15:29:14;19.60;99.90
5246;DHT22;54412;51.206;6.888;2022-10-16T15:31:39;19.50;99.90
5246;DHT22;54412;51.206;6.888;2022-10-16T15:34:09;19.50;99.90
5246;DHT22;54412;51.206;6.888;2022-10-16T15:36:37;19.50;99.90
5246;DHT22;54412;51.206;6.888;2022-10-16T15:39:05;19.50;99.90
5246;DHT22;54412;51.206;6.888;2022-10-16T15:41:37;19.50;99.90
5246;DHT22;54412;51.206;6.888;2022-10-16T15:44:03;19.50;99.90
5246;DHT22;54412;51.206;6.888;2022-10-16T15:46:29;19.30;99.90
5246;DHT22;54412;51.206;6.888;2022-10-16T15:48:57;19.30;99.90
5246;DHT22;54412;51.206;6.888;2022-10-16T15:51:24;19.20;99.90
5246;DHT22;54412;51.206;6.888;2022-10-16T15:53:52;19.10;99.90
5246;DHT22;54412;51.206;6.888;2022-10-16T15:56:19;19.10;99.90
5246;DHT22;54412;51.206;6.888;2022-10-16T15:58:44;19.00;99.90
5246;DHT22;54412;51.206;6.888;2022-10-16T16:01:10;19.00;99.90
5246;DHT22;54412;51.206;6.888;2022-10-16T16:03:38;18.90;99.90
5246;DHT22;54412;51.206;6.888;2022-10-16T16:06:09;18.90;99.90
5246;DHT22;54412;51.206;6.888;2022-10-16T16:08:37;19.00;99.90
5246;DHT22;54412;51.206;6.888;2022-10-16T16:11:06;18.90;99.90
5246;DHT22;54412;51.206;6.888;2022-10-16T16:13:36;18.80;99.90
5246;DHT22;54412;51.206;6.888;2022-10-16T16:16:09;18.70;99.90
5246;DHT22;54412;51.206;6.888;2022-10-16T16:18:36;18.60;99.90
5246;DHT22;54412;51.206;6.888;2022-10-16T16:21:03;18.70;99.90
5246;DHT22;54412;51.206;6.888;2022-10-16T16:23:29;18.70;99.90
5246;DHT22;54412;51.206;6.888;2022-10-16T16:26:14;18.70;99.90
5246;DHT22;54412;51.206;6.888;2022-10-16T16:28:49;18.60;99.90
5246;DHT22;54412;51.206;6.888;2022-10-16T16:31:14;18.60;99.90
5246;DHT22;54412;51.206;6.888;2022-10-16T16:33:40;18.60;99.90
5246;DHT22;54412;51.206;6.888;2022-10-16T16:36:06;18.50;99.90
5246;DHT22;54412;51.206;6.888;2022-10-16T16:38:33;18.50;99.90
5246;DHT22;54412;51.206;6.888;2022-10-16T16:40:59;18.50;99.90
5246;DHT22;54412;51.206;6.888;2022-10-16T16:43:25;18.40;99.90
5246;DHT22;54412;51.206;6.888;2022-10-16T16:45:52;18.40;99.90
5246;DHT22;54412;51.206;6.888;2022-10-16T16:48:19;18.40;99.90
5246;DHT22;54412;51.206;6.888;2022-10-16T16:50:45;18.40;99.90
5246;DHT22;54412;51.206;6.888;2022-10-16T16:53:11;18.30;99.90
5246;DHT22;54412;51.206;6.888;2022-10-16T16:55:37;18.30;99.90
5246;DHT22;54412;51.206;6.888;2022-10-16T16:58:03;18.20;99.90
5246;DHT22;54412;51.206;6.888;2022-10-16T17:00:30;18.20;99.90
5246;DHT22;54412;51.206;6.888;2022-10-16T17:02:56;18.20;99.90
5246;DHT22;54412;51.206;6.888;2022-10-16T17:05:22;18.20;99.90
5246;DHT22;54412;51.206;6.888;2022-10-16T17:07:48;18.20;99.90
5246;DHT22;54412;51.206;6.888;2022-10-16T17:10:13;18.30;99.90
5246;DHT22;54412;51.206;6.888;2022-10-16T17:12:39;18.20;99.90
5246;DHT22;54412;51.206;6.888;2022-10-16T17:15:06;18.20;99.90
5246;DHT22;54412;51.206;6.888;2022-10-16T17:17:32;18.20;99.90
5246;DHT22;54412;51.206;6.888;2022-10-16T17:19:58;18.20;99.90
5246;DHT22;54412;51.206;6.888;2022-10-16T17:22:24;18.20;99.90
5246;DHT22;54412;51.206;6.888;2022-10-16T17:24:50;18.20;99.90
5246;DHT22;54412;51.206;6.888;2022-10-16T17:27:17;18.20;99.90
5246;DHT22;54412;51.206;6.888;2022-10-16T17:29:44;18.20;99.90
5246;DHT22;54412;51.206;6.888;2022-10-16T17:32:10;18.20;99.90
5246;DHT22;54412;51.206;6.888;2022-10-16T17:34:36;18.20;99.90
5246;DHT22;54412;51.206;6.888;2022-10-16T17:37:02;18.20;99.90